createdAt,value
2023-03-28T00:00:44.302Z,16.63
2023-03-28T00:10:47.639Z,14.50
2023-03-28T00:20:53.683Z,14.45
2023-03-28T00:31:04.159Z,10.20
2023-03-28T00:41:10.511Z,13.60
2023-03-28T00:51:14.728Z,17.38
2023-03-28T01:01:21.225Z,24.67
2023-03-28T01:11:25.764Z,13.02
2023-03-28T01:22:02.605Z,18.58
2023-03-28T01:32:34.056Z,12.00
2023-03-28T01:42:55.355Z,11.85
2023-03-28T01:53:04.447Z,14.10
2023-03-28T02:03:14.299Z,16.83
2023-03-28T02:13:30.432Z,18.85
2023-03-28T02:23:55.758Z,18.63
2023-03-28T02:34:24.658Z,11.30
2023-03-28T02:44:46.803Z,15.30
2023-03-28T02:54:54.597Z,18.30
2023-03-28T03:05:20.714Z,19.58
2023-03-28T03:15:23.845Z,20.02
2023-03-28T03:25:33.558Z,17.45
2023-03-28T03:35:45.917Z,16.90
2023-03-28T03:45:50.970Z,21.97
2023-03-28T03:55:54.098Z,22.73
2023-03-28T04:05:59.145Z,24.27
2023-03-28T04:16:02.550Z,31.58
2023-03-28T04:26:25.645Z,21.02
2023-03-28T04:46:53.111Z,31.55
2023-03-28T04:56:56.284Z,29.45
2023-03-28T05:07:12.427Z,34.55
2023-03-28T05:27:28.623Z,45.83
2023-03-28T05:47:37.469Z,45.85
2023-03-28T05:57:41.077Z,47.40
2023-03-28T06:07:45.732Z,42.80
2023-03-28T06:17:51.759Z,34.70
2023-03-28T06:27:57.867Z,28.27
2023-03-28T06:38:01.112Z,32.17
2023-03-28T06:48:05.803Z,32.50
2023-03-28T06:58:39.320Z,34.65
2023-03-28T07:08:48.186Z,31.60
2023-03-28T07:18:54.302Z,33.67
2023-03-28T07:29:09.511Z,25.83
2023-03-28T07:39:12.826Z,27.88
2023-03-28T07:49:20.073Z,13.05
2023-03-28T07:59:23.763Z,18.70
2023-03-28T08:09:30.781Z,21.50
2023-03-28T08:19:50.888Z,21.50
2023-03-28T08:30:10.832Z,27.48
2023-03-28T08:40:26.565Z,16.85
2023-03-28T08:50:36.243Z,19.20
2023-03-28T09:00:40.386Z,17.85
2023-03-28T09:10:47.019Z,11.35
2023-03-28T09:20:58.490Z,19.65
2023-03-28T09:31:13.617Z,16.33
2023-03-28T09:41:22.461Z,12.65
2023-03-28T09:51:27.183Z,12.48
2023-03-28T10:01:41.703Z,11.93
2023-03-28T10:12:11.796Z,8.98
2023-03-28T10:22:17.556Z,11.15
2023-03-28T10:32:28.261Z,8.73
2023-03-28T10:42:46.304Z,9.43
2023-03-28T10:53:33.137Z,5.95
2023-03-28T11:03:57.281Z,13.95
2023-03-28T11:14:08.915Z,13.75
2023-03-28T11:24:25.860Z,16.00
2023-03-28T11:35:02.030Z,8.27
2023-03-28T11:45:18.818Z,12.25
2023-03-28T11:55:26.461Z,7.32
2023-03-28T12:05:35.041Z,7.80
2023-03-28T12:15:47.996Z,10.63
2023-03-28T12:26:01.289Z,11.07
2023-03-28T12:36:12.440Z,6.75
2023-03-28T12:46:19.550Z,11.82
2023-03-28T12:56:24.337Z,9.77
2023-03-28T13:06:40.949Z,13.57
2023-03-28T13:16:48.053Z,9.52
2023-03-28T13:26:55.657Z,8.15
2023-03-28T13:37:22.960Z,6.57
2023-03-28T13:47:33.875Z,10.48
2023-03-28T13:57:38.491Z,6.75
2023-03-28T14:07:42.347Z,4.97
2023-03-28T14:17:47.264Z,9.48
2023-03-28T14:37:57.626Z,6.68
2023-03-28T14:48:01.101Z,6.35
2023-03-28T14:58:07.072Z,11.02
2023-03-28T15:08:25.619Z,7.03
2023-03-28T15:18:33.788Z,10.57
2023-03-28T15:28:37.354Z,6.13
2023-03-28T15:38:43.346Z,7.80
2023-03-28T15:48:46.435Z,7.15
2023-03-28T15:58:50.967Z,6.93
2023-03-28T16:08:58.663Z,7.10
2023-03-28T16:19:03.467Z,11.98
2023-03-28T16:29:09.254Z,9.40
2023-03-28T16:39:14.013Z,12.10
2023-03-28T16:49:17.157Z,8.43
2023-03-28T16:59:22.360Z,8.30
2023-03-28T17:09:25.540Z,7.55
2023-03-28T17:19:30.117Z,6.75
2023-03-28T17:29:33.512Z,10.40
2023-03-28T17:39:39.352Z,9.63
2023-03-28T17:49:42.984Z,11.00
2023-03-28T17:59:47.358Z,11.57
2023-03-28T18:09:50.467Z,10.13
2023-03-28T18:19:54.891Z,8.60
2023-03-28T18:29:57.903Z,12.30
2023-03-28T18:40:02.585Z,12.55
2023-03-28T18:50:07.313Z,12.23
2023-03-28T19:00:18.586Z,13.10
2023-03-28T19:10:21.749Z,12.20
2023-03-28T19:20:26.067Z,9.73
2023-03-28T19:30:30.479Z,8.27
2023-03-28T19:40:34.922Z,10.37
2023-03-28T19:50:37.936Z,5.47
2023-03-28T20:00:42.299Z,8.57
2023-03-28T20:10:47.736Z,12.90
2023-03-28T20:20:53.145Z,4.68
2023-03-28T20:30:56.225Z,6.30
2023-03-28T20:41:00.977Z,11.18
2023-03-28T20:51:05.857Z,8.65
2023-03-28T21:01:12.751Z,9.40
2023-03-28T21:11:17.548Z,8.95
2023-03-28T21:21:22.885Z,8.20
2023-03-28T21:31:28.143Z,6.43
2023-03-28T21:41:32.730Z,6.20
2023-03-28T21:51:35.951Z,4.53
2023-03-28T22:01:40.888Z,6.80
2023-03-28T22:11:44.840Z,4.05
2023-03-28T22:21:49.585Z,5.03
2023-03-28T22:31:52.616Z,8.52
2023-03-28T22:41:56.988Z,9.43
2023-03-28T22:52:01.925Z,6.63
2023-03-28T23:02:07.126Z,5.47
2023-03-28T23:12:10.154Z,5.22
2023-03-28T23:22:14.481Z,7.95
2023-03-28T23:32:17.420Z,7.97
2023-03-28T23:42:22.218Z,7.10
2023-03-28T23:52:25.216Z,10.07
